Airfield :
LOGIN :

Register | Disclaimer

   EN    FR    IT 

 










Legend :    VFR   Marginal VFR   IFR   Intensive IFR   Very Intensive IFR
Visi :
Ceiling :
>= 8 km
>= 3000ft
5 to 8 km
1000 to 3000 ft
1500m to 5 km
500 to 1000 ft
800 to 1500m
200 to 500 ft
< 800m
< 200 ft
Symbols :   Thunderstorms  Fog  Heavy snow  Heavy precipitations  Wind > 20 kt
SIGMETs :     Misc.  Thunderstorms  Icing  Turbulence  Mountain Waves  Volcanic Ashes






- Airport Elevation : 230 ft
- IATA code : VAR


LBWN - Varna

CURRENT METAR :
  • 192300Z 10003KT 4600 BR FEW005 SCT045 06/06 Q1016 NOSIG

EXPIRED METARs :
  • 192230Z 00000KT 4300 -RA BR FEW005 SCT045 06/06 Q1016 TEMPO 3000 RA BR
  • 192200Z 28001KT 6000 -RA SCT045 06/06 Q1017 NOSIG
  • 192130Z VRB01KT 6000 SCT045 06/06 Q1017 TEMPO 5000 RA
  • 192100Z 09004KT 7000 SCT045 07/06 Q1017 NOSIG
  • 192030Z VRB02KT 8000 SCT048 07/06 Q1017 NOSIG

TAF TAF LBWN
Valid from the 19 at 18:00 until the 20 at 18:00 UTC


191700Z 1918/2018 VRB04KT 7000 SCT030 BKN045
TEMPO 2000/2006 3000 BR
BECMG 2006/2008 03010KT
TEMPO 2008/2017 5000 RA BKN010 OVC030



MET'MAP, your aeronautical weather chart ! - Copyright ORBIFLY December 2007 - Disclaimer

ORBIFLY MET'MAP TEAM :

Programming & Development : Alexandra Zaïnal
Concept & original design : Baudouin d'Aumeries
Assistance for programming : Marc-Olivier Méhu
Technical & hardware support : Manuel Goepfert

Contact : metmap@orbifly.com




SOURCES & CREDITS :

   NOAA